Time;durP1;ratioP1;P1;durP2;ratioP2;P2;SDS_P1;SDS_P2;PMS_P1;PMS_P2;Temp;Humidity;BMP_temperature;BMP_pressure;BME280_temperature;BME280_humidity;BME280_pressure;Samples;Min_cycle;Max_cycle;Signal;HPM_P1;HPM_P2
2022/05/21 00:02:00;;;;;;;;;;;;;;;19.63;75.85;99697.04;106534;1267;23703;-67
2022/05/21 00:04:31;;;;;;;;;;;;;;;19.60;75.55;99700.37;106404;1267;22509;-67
2022/05/21 00:07:01;;;;;;;;;;;;;;;19.57;75.56;99684.34;106127;1267;24694;-67
2022/05/21 00:09:31;;;;;;;;;;;;;;;19.54;75.69;99670.58;106191;1267;22505;-67
2022/05/21 00:12:01;;;;;;;;;;;;;;;19.50;75.65;99667.84;106232;1267;22538;-66
2022/05/21 00:14:34;;;;;;;;;;;;;;;19.45;75.97;99675.67;106206;1267;24269;-66
2022/05/21 00:17:04;;;;;;;;;;;;;;;19.39;75.93;99673.89;106385;1265;24355;-66
2022/05/21 00:19:34;;;;;;;;;;;;;;;19.35;75.92;99685.88;106239;1267;22512;-66
2022/05/21 00:22:04;;;;;;;;;;;;;;;19.31;76.05;99679.25;106135;1267;24392;-66
2022/05/21 00:24:34;;;;;;;;;;;;;;;19.28;76.03;99675.73;106310;1267;24003;-66
2022/05/21 00:27:05;;;;;;;;;;;;;;;19.26;76.13;99677.20;106299;1267;27454;-66
2022/05/21 00:29:36;;;;;;;;;;;;;;;19.23;76.28;99684.00;106270;1267;24296;-66
2022/05/21 00:32:07;;;;;;;;;;;;;;;19.20;76.22;99683.71;106431;1265;24683;-66
2022/05/21 00:34:37;;;;;;;;;;;;;;;19.15;76.47;99682.68;106434;1267;25369;-65
2022/05/21 00:37:07;;;;;;;;;;;;;;;19.11;76.54;99689.54;106283;1267;22507;-65
2022/05/21 00:39:38;;;;;;;;;;;;;;;19.08;76.48;99690.48;106163;1267;22838;-65
2022/05/21 00:42:08;;;;;;;;;;;;;;;19.04;76.61;99687.86;106100;1267;22502;-66
2022/05/21 00:44:38;;;;;;;;;;;;;;;19.00;76.79;99687.02;106157;1267;23307;-65
2022/05/21 00:47:08;;;;;;;;;;;;;;;18.96;76.85;99698.34;106259;1267;24319;-65
2022/05/21 00:49:39;;;;;;;;;;;;;;;18.93;76.89;99694.90;106382;1267;22545;-65
2022/05/21 00:52:11;;;;;;;;;;;;;;;18.90;76.91;99692.92;106151;1267;25407;-64
2022/05/21 00:54:43;;;;;;;;;;;;;;;18.87;77.00;99699.23;106160;1267;24322;-65
2022/05/21 00:57:20;;;;;;;;;;;;;;;18.84;77.11;99696.81;106319;1267;22524;-65
2022/05/21 00:59:52;;;;;;;;;;;;;;;18.81;77.14;99691.42;106271;1267;26575;-65
2022/05/21 01:02:23;;;;;;;;;;;;;;;18.80;77.17;99695.38;106383;1267;22526;-65
2022/05/21 01:04:56;;;;;;;;;;;;;;;18.78;77.37;99710.63;106390;1267;22636;-64
2022/05/21 01:07:28;;;;;;;;;;;;;;;18.76;77.40;99716.44;106224;1267;26517;-65
2022/05/21 01:09:58;;;;;;;;;;;;;;;18.74;77.36;99719.16;106372;1267;24270;-65
2022/05/21 01:12:29;;;;;;;;;;;;;;;18.73;77.39;99710.33;106198;1267;22503;-65
2022/05/21 01:15:01;;;;;;;;;;;;;;;18.74;77.39;99706.98;106260;1267;22716;-64
2022/05/21 01:17:31;;;;;;;;;;;;;;;18.73;77.38;99707.24;106332;1267;24318;-64
2022/05/21 01:20:02;;;;;;;;;;;;;;;18.73;77.46;99705.20;106074;1267;24380;-65
2022/05/21 01:22:32;;;;;;;;;;;;;;;18.74;77.41;99700.70;106274;1267;24405;-64
2022/05/21 01:25:02;;;;;;;;;;;;;;;18.76;77.35;99707.40;106378;1267;26632;-64
2022/05/21 01:27:32;;;;;;;;;;;;;;;18.76;77.35;99709.13;106330;1267;22658;-65
2022/05/21 01:30:04;;;;;;;;;;;;;;;18.77;77.40;99709.98;106237;1267;22525;-64
2022/05/21 01:32:33;;;;;;;;;;;;;;;18.77;77.43;99717.38;106486;1266;22500;-66
2022/05/21 01:35:03;;;;;;;;;;;;;;;18.78;77.34;99717.37;106173;1267;25285;-64
2022/05/21 01:37:34;;;;;;;;;;;;;;;18.78;77.53;99723.89;106277;1267;22512;-64
2022/05/21 01:40:04;;;;;;;;;;;;;;;18.78;77.37;99736.34;106300;1267;24299;-65
2022/05/21 01:42:33;;;;;;;;;;;;;;;18.81;77.26;99739.77;106197;1267;22669;-64
2022/05/21 01:45:04;;;;;;;;;;;;;;;18.85;77.29;99741.13;106155;1267;23355;-64
2022/05/21 01:47:34;;;;;;;;;;;;;;;18.88;77.26;99740.64;106138;1267;22667;-65
2022/05/21 01:50:04;;;;;;;;;;;;;;;18.90;76.98;99737.83;106210;1267;22504;-65
2022/05/21 01:52:34;;;;;;;;;;;;;;;18.92;76.81;99744.11;106233;1267;25452;-64
2022/05/21 01:55:03;;;;;;;;;;;;;;;18.94;76.75;99732.65;106177;1267;24319;-65
2022/05/21 01:57:33;;;;;;;;;;;;;;;18.96;76.68;99732.80;106126;1267;25305;-63
2022/05/21 02:00:03;;;;;;;;;;;;;;;18.98;76.57;99734.41;106133;1267;22646;-65
2022/05/21 02:02:34;;;;;;;;;;;;;;;19.00;76.67;99732.29;106656;1267;22516;-64
2022/05/21 02:05:04;;;;;;;;;;;;;;;19.02;76.34;99744.23;106429;1267;22566;-65
2022/05/21 02:07:35;;;;;;;;;;;;;;;19.02;76.39;99748.07;106735;1267;25391;-64
2022/05/21 02:10:06;;;;;;;;;;;;;;;19.02;76.30;99751.88;106438;1267;25238;-64
2022/05/21 02:12:36;;;;;;;;;;;;;;;19.01;76.28;99763.08;106519;1267;24228;-65
2022/05/21 02:15:07;;;;;;;;;;;;;;;18.98;75.98;99766.28;106222;1267;22505;-65
2022/05/21 02:17:38;;;;;;;;;;;;;;;18.97;76.03;99769.19;106291;1267;22525;-64
2022/05/21 02:20:09;;;;;;;;;;;;;;;18.97;75.75;99773.20;106519;1267;27013;-64
2022/05/21 02:22:38;;;;;;;;;;;;;;;18.97;75.65;99775.78;106456;1267;22503;-65
2022/05/21 02:25:09;;;;;;;;;;;;;;;18.97;75.55;99779.21;106165;1267;22685;-63
2022/05/21 02:27:40;;;;;;;;;;;;;;;18.97;75.36;99782.05;106283;1267;24370;-65
2022/05/21 02:30:12;;;;;;;;;;;;;;;18.98;75.30;99778.98;106415;1267;26011;-63
2022/05/21 02:32:42;;;;;;;;;;;;;;;18.97;75.17;99785.59;106245;1267;25348;-65
2022/05/21 02:35:11;;;;;;;;;;;;;;;18.96;75.12;99785.98;106393;1267;23055;-64
2022/05/21 02:40:30;;;;;;;;;;;;;;;18.96;74.71;99789.56;52723;1267;1016680;-64
2022/05/21 02:43:00;;;;;;;;;;;;;;;18.98;74.47;99798.95;50592;1267;6568525;-64
2022/05/21 02:45:30;;;;;;;;;;;;;;;18.97;74.28;99807.09;52729;1267;1016651;-65
2022/05/21 02:48:01;;;;;;;;;;;;;;;18.96;74.04;99808.44;52807;1267;1016624;-64
2022/05/21 02:50:34;;;;;;;;;;;;;;;18.97;73.98;99817.90;52801;1270;1016686;-64
2022/05/21 02:53:05;;;;;;;;;;;;;;;18.96;73.89;99819.11;52926;1267;1016286;-64
2022/05/21 02:55:35;;;;;;;;;;;;;;;18.95;73.85;99833.92;53004;1267;1016380;-64
2022/05/21 02:58:05;;;;;;;;;;;;;;;18.95;73.64;99829.66;52897;1267;1016424;-65
2022/05/21 03:00:35;;;;;;;;;;;;;;;18.96;73.55;99829.89;52866;1267;1016293;-65
2022/05/21 03:03:05;;;;;;;;;;;;;;;18.95;73.42;99827.80;52885;1267;1016460;-63
2022/05/21 03:05:35;;;;;;;;;;;;;;;18.94;73.10;99831.45;52738;1267;1016664;-63
2022/05/21 03:10:53;;;;;;;;;;;;;;;18.85;72.85;99828.59;52779;1268;1016286;-64
2022/05/21 03:13:24;;;;;;;;;;;;;;;18.80;72.51;99830.55;52812;1267;1018813;-64
2022/05/21 03:15:54;;;;;;;;;;;;;;;18.74;72.52;99836.54;52879;1267;1017302;-63
2022/05/21 03:18:25;;;;;;;;;;;;;;;18.69;72.47;99844.23;52764;1267;1016149;-64
2022/05/21 03:20:55;;;;;;;;;;;;;;;18.64;72.58;99845.68;52879;1267;1015798;-64
2022/05/21 03:23:25;;;;;;;;;;;;;;;18.59;72.69;99849.68;52734;1267;1016070;-64
2022/05/21 03:25:55;;;;;;;;;;;;;;;18.55;72.67;99857.58;52850;1267;1016661;-64
2022/05/21 03:28:25;;;;;;;;;;;;;;;18.51;72.90;99855.19;52723;1267;1016616;-64
2022/05/21 03:30:55;;;;;;;;;;;;;;;18.48;72.92;99866.56;52843;1267;1017939;-64
2022/05/21 03:33:27;;;;;;;;;;;;;;;18.47;72.84;99858.51;52881;1267;1015944;-64
2022/05/21 03:35:56;;;;;;;;;;;;;;;18.45;72.89;99866.10;52815;1267;1016211;-64
2022/05/21 03:38:26;;;;;;;;;;;;;;;18.42;72.41;99871.80;52899;1267;1016337;-64
2022/05/21 03:40:56;;;;;;;;;;;;;;;18.36;70.25;99877.08;52905;1267;1016746;-64
2022/05/21 03:43:26;;;;;;;;;;;;;;;18.28;69.52;99881.07;53043;1267;1016624;-64
2022/05/21 03:45:56;;;;;;;;;;;;;;;18.22;69.13;99878.77;52909;1267;1016518;-64
2022/05/21 03:48:26;;;;;;;;;;;;;;;18.15;68.13;99887.06;52816;1267;1015874;-64
2022/05/21 03:50:56;;;;;;;;;;;;;;;18.08;67.22;99893.61;52840;1267;1016132;-64
2022/05/21 03:53:26;;;;;;;;;;;;;;;18.00;65.91;99900.16;52800;1267;1016660;-66
2022/05/21 03:55:56;;;;;;;;;;;;;;;17.91;64.89;99905.04;52997;1268;1016023;-65
2022/05/21 03:58:26;;;;;;;;;;;;;;;17.78;64.60;99921.40;52940;1270;1016354;-65
2022/05/21 04:00:57;;;;;;;;;;;;;;;17.67;63.93;99920.34;53013;1268;1016302;-65
2022/05/21 04:03:27;;;;;;;;;;;;;;;17.58;63.33;99927.71;53062;1267;1016384;-66
2022/05/21 04:05:58;;;;;;;;;;;;;;;17.48;63.20;99927.32;52869;1267;1016070;-65
2022/05/21 04:08:28;;;;;;;;;;;;;;;17.41;63.64;99928.70;53012;1267;1016738;-66
2022/05/21 04:10:59;;;;;;;;;;;;;;;17.33;63.58;99933.10;53148;1267;1016634;-67
2022/05/21 04:13:28;;;;;;;;;;;;;;;17.28;63.73;99944.77;52997;1267;1015766;-66
2022/05/21 04:15:58;;;;;;;;;;;;;;;17.24;63.55;99947.70;53071;1267;1016485;-66
2022/05/21 04:18:29;;;;;;;;;;;;;;;17.20;62.72;99952.67;53107;1267;1018294;-66
2022/05/21 04:20:59;;;;;;;;;;;;;;;17.15;62.55;99950.48;53192;1267;1015825;-66
2022/05/21 04:23:29;;;;;;;;;;;;;;;17.13;62.66;99966.45;53164;1267;1016251;-65
2022/05/21 04:26:01;;;;;;;;;;;;;;;17.11;63.06;99971.86;53007;1267;1016238;-68
2022/05/21 04:28:32;;;;;;;;;;;;;;;17.10;62.45;99978.38;53335;1267;1016418;-66
2022/05/21 04:31:02;;;;;;;;;;;;;;;17.08;62.09;99979.75;53023;1267;1016098;-67
2022/05/21 04:33:32;;;;;;;;;;;;;;;17.06;61.83;99979.30;53163;1256;1016495;-52
2022/05/21 04:36:21;;;;;;;;;;;;;;;17.05;61.78;99989.35;52965;1267;1016605;-54
2022/05/21 04:38:52;;;;;;;;;;;;;;;17.06;62.04;99987.20;52841;1267;1016292;-53
2022/05/21 04:41:22;;;;;;;;;;;;;;;17.07;61.87;99999.33;54684;1267;1016647;-55
2022/05/21 04:43:53;;;;;;;;;;;;;;;17.08;61.23;100002.50;53739;1267;1016364;-56
2022/05/21 04:46:24;;;;;;;;;;;;;;;17.08;61.74;100000.86;53043;1267;1018617;-55
2022/05/21 04:48:54;;;;;;;;;;;;;;;17.08;61.29;100009.54;52969;1266;1016164;-55
2022/05/21 04:51:23;;;;;;;;;;;;;;;17.07;61.38;100006.02;53107;1267;1016654;-56
2022/05/21 04:53:55;;;;;;;;;;;;;;;17.05;60.99;100010.08;52839;1267;1016536;-54
2022/05/21 04:56:25;;;;;;;;;;;;;;;17.03;60.74;100026.98;52821;1267;1016145;-57
2022/05/21 04:58:55;;;;;;;;;;;;;;;16.99;60.91;100021.27;52898;1268;1016263;-53
2022/05/21 05:01:25;;;;;;;;;;;;;;;16.97;60.54;100021.85;53025;1267;1016441;-52
2022/05/21 05:03:55;;;;;;;;;;;;;;;16.96;60.95;100028.68;52839;1267;1018886;-55
2022/05/21 05:06:25;;;;;;;;;;;;;;;16.98;61.06;100032.55;52889;1267;1016760;-54
2022/05/21 05:08:55;;;;;;;;;;;;;;;17.01;61.14;100036.06;53012;1267;1016695;-54
2022/05/21 05:11:25;;;;;;;;;;;;;;;17.02;60.85;100044.00;52961;1268;1017918;-54
2022/05/21 05:13:56;;;;;;;;;;;;;;;17.00;60.52;100045.41;52984;1267;1016458;-51
2022/05/21 05:16:27;;;;;;;;;;;;;;;16.95;60.53;100049.66;52947;1267;1016525;-54
2022/05/21 05:18:57;;;;;;;;;;;;;;;16.95;60.81;100044.08;53409;1267;1016240;-54
2022/05/21 05:21:27;;;;;;;;;;;;;;;16.96;60.28;100048.07;53029;1267;1016167;-52
2022/05/21 05:23:57;;;;;;;;;;;;;;;16.94;60.03;100053.05;52804;1267;1015983;-55
2022/05/21 05:26:27;;;;;;;;;;;;;;;16.91;60.11;100049.75;53046;1267;1017225;-51
2022/05/21 05:28:57;;;;;;;;;;;;;;;16.89;60.15;100058.73;52962;1267;1016517;-54
2022/05/21 05:31:27;;;;;;;;;;;;;;;16.90;60.17;100055.04;52931;1267;1016167;-53
2022/05/21 05:33:58;;;;;;;;;;;;;;;16.91;60.20;100053.34;52889;1267;1018909;-52
2022/05/21 05:36:28;;;;;;;;;;;;;;;16.94;59.97;100063.51;53011;1267;1016435;-51
2022/05/21 05:39:00;;;;;;;;;;;;;;;16.96;59.48;100074.05;53023;1267;1015826;-51
2022/05/21 05:41:31;;;;;;;;;;;;;;;16.96;59.56;100061.96;53050;1267;1016571;-51
2022/05/21 05:44:00;;;;;;;;;;;;;;;17.00;59.54;100067.15;53055;1268;1017405;-54
2022/05/21 05:46:31;;;;;;;;;;;;;;;17.04;59.16;100074.27;52985;1267;1016288;-52
2022/05/21 05:49:01;;;;;;;;;;;;;;;17.08;58.61;100077.48;52989;1268;1015882;-55
2022/05/21 05:51:31;;;;;;;;;;;;;;;17.09;58.79;100082.64;52883;1267;1017893;-55
2022/05/21 05:54:01;;;;;;;;;;;;;;;17.07;58.14;100090.00;52947;1267;1016433;-55
2022/05/21 05:56:31;;;;;;;;;;;;;;;17.05;57.97;100086.89;53108;1267;1016586;-52
2022/05/21 06:04:42;;;;;;;;;;;;;;;16.98;58.26;100081.92;52646;1273;1016134;-52
2022/05/21 06:07:14;;;;;;;;;;;;;;;17.03;58.34;100085.52;52708;1273;1016687;-50
2022/05/21 06:09:44;;;;;;;;;;;;;;;17.08;57.60;100106.00;52775;1273;1016701;-51
2022/05/21 06:12:15;;;;;;;;;;;;;;;17.06;57.30;100104.58;52765;1273;1021103;-52
2022/05/21 06:14:46;;;;;;;;;;;;;;;17.06;57.12;100100.48;52698;1273;1016581;-51
2022/05/21 06:17:16;;;;;;;;;;;;;;;17.08;57.21;100098.86;52778;1273;1016685;-52
2022/05/21 06:19:46;;;;;;;;;;;;;;;17.12;57.16;100103.09;52786;1273;1017816;-54
2022/05/21 06:22:16;;;;;;;;;;;;;;;17.15;56.89;100097.27;52736;1273;1016364;-53
2022/05/21 06:24:46;;;;;;;;;;;;;;;17.20;56.52;100112.68;52827;1274;1016298;-51
2022/05/21 06:27:19;;;;;;;;;;;;;;;17.20;55.35;100108.43;52688;1273;1018985;-51
2022/05/21 06:29:48;;;;;;;;;;;;;;;17.18;55.61;100103.16;52789;1273;1017377;-51
2022/05/21 06:32:18;;;;;;;;;;;;;;;17.22;56.25;100105.40;52646;1273;1017451;-54
2022/05/21 06:34:49;;;;;;;;;;;;;;;17.30;55.77;100113.46;52613;1273;1016278;-56
2022/05/21 06:37:19;;;;;;;;;;;;;;;17.41;55.42;100110.33;52757;1270;1016359;-52
2022/05/21 06:39:49;;;;;;;;;;;;;;;17.52;55.66;100106.48;52726;1268;1016323;-50
2022/05/21 06:42:19;;;;;;;;;;;;;;;17.53;54.84;100119.96;52808;1268;1016485;-51
2022/05/21 06:44:49;;;;;;;;;;;;;;;17.45;55.04;100116.17;52866;1267;1016201;-51
2022/05/21 06:47:19;;;;;;;;;;;;;;;17.40;55.18;100120.50;52846;1267;1015918;-54
2022/05/21 06:49:49;;;;;;;;;;;;;;;17.31;55.11;100124.33;53052;1268;1016119;-51
2022/05/21 06:52:19;;;;;;;;;;;;;;;17.25;55.61;100116.70;52995;1267;1017572;-51
2022/05/21 06:54:49;;;;;;;;;;;;;;;17.32;55.96;100114.63;53083;1268;1018328;-55
2022/05/21 06:57:20;;;;;;;;;;;;;;;17.38;55.90;100125.50;52830;1268;1016662;-51
2022/05/21 06:59:51;;;;;;;;;;;;;;;17.39;55.31;100132.36;52923;1267;1016500;-52
2022/05/21 07:02:22;;;;;;;;;;;;;;;17.28;55.17;100124.36;52840;1267;1016341;-51
2022/05/21 07:07:44;;;;;;;;;;;;;;;17.20;54.76;100132.70;52911;1267;1016531;-53
2022/05/21 07:10:17;;;;;;;;;;;;;;;17.27;54.20;100122.63;53036;1267;1015937;-54
2022/05/21 07:12:47;;;;;;;;;;;;;;;17.32;54.02;100136.54;52890;1270;1016415;-52
2022/05/21 07:15:18;;;;;;;;;;;;;;;17.39;53.91;100137.89;52911;1268;1016309;-54
2022/05/21 07:17:48;;;;;;;;;;;;;;;17.45;54.04;100136.23;52833;1267;1019971;-52
2022/05/21 07:20:19;;;;;;;;;;;;;;;17.51;54.44;100142.14;52954;1267;1019168;-53
2022/05/21 07:22:50;;;;;;;;;;;;;;;17.52;53.65;100139.23;52798;1268;1016479;-55
2022/05/21 07:25:21;;;;;;;;;;;;;;;17.46;53.33;100142.85;52808;1267;1015943;-53
2022/05/21 07:27:52;;;;;;;;;;;;;;;17.45;53.11;100153.73;52962;1268;1016291;-54
2022/05/21 07:30:22;;;;;;;;;;;;;;;17.47;52.66;100163.57;52938;1268;1016744;-53
2022/05/21 07:32:55;;;;;;;;;;;;;;;17.50;52.81;100162.84;52861;1269;1019660;-50
2022/05/21 07:35:26;;;;;;;;;;;;;;;17.55;52.84;100157.20;52816;1268;1017166;-54
2022/05/21 07:37:56;;;;;;;;;;;;;;;17.52;52.84;100169.55;52968;1267;1016308;-54
2022/05/21 07:40:26;;;;;;;;;;;;;;;17.46;52.72;100165.27;52941;1268;1016233;-51
2022/05/21 07:42:56;;;;;;;;;;;;;;;17.42;52.65;100166.30;52918;1269;1016467;-54
2022/05/21 07:45:26;;;;;;;;;;;;;;;17.46;53.19;100164.82;53037;1267;1016376;-55
2022/05/21 07:47:56;;;;;;;;;;;;;;;17.54;53.00;100173.13;52863;1269;1016576;-53
2022/05/21 07:50:25;;;;;;;;;;;;;;;17.60;52.43;100173.57;52826;1268;1016590;-54
2022/05/21 07:52:55;;;;;;;;;;;;;;;17.64;52.13;100179.12;53351;1268;1016680;-54
2022/05/21 07:55:25;;;;;;;;;;;;;;;17.70;52.44;100176.70;52926;1268;1016581;-52
2022/05/21 07:57:55;;;;;;;;;;;;;;;17.77;52.34;100188.95;52846;1268;1016555;-54
2022/05/21 08:00:25;;;;;;;;;;;;;;;17.79;52.06;100180.14;52883;1268;1016923;-55
2022/05/21 08:02:55;;;;;;;;;;;;;;;17.78;51.77;100181.70;52845;1268;1016581;-55
2022/05/21 08:05:26;;;;;;;;;;;;;;;17.77;51.72;100193.16;52995;1268;1016317;-53
2022/05/21 08:07:56;;;;;;;;;;;;;;;17.84;51.22;100184.65;52934;1268;1016699;-50
2022/05/21 08:10:26;;;;;;;;;;;;;;;17.90;51.11;100192.86;52851;1268;1019148;-54
2022/05/21 08:12:56;;;;;;;;;;;;;;;17.90;50.60;100186.75;52917;1268;1016525;-54
2022/05/21 08:15:25;;;;;;;;;;;;;;;17.94;50.40;100184.08;52919;1268;1016132;-51
2022/05/21 08:17:56;;;;;;;;;;;;;;;17.94;50.86;100184.29;52965;1268;1016187;-56
2022/05/21 08:20:26;;;;;;;;;;;;;;;17.97;50.97;100187.95;52852;1268;1020087;-54
2022/05/21 08:28:39;;;;;;;;;;;;;;;17.89;49.80;100204.58;52995;1271;1016386;-55
2022/05/21 08:31:09;;;;;;;;;;;;;;;17.93;50.08;100193.33;52557;1273;1020274;-53
2022/05/21 08:33:39;;;;;;;;;;;;;;;18.03;49.57;100195.02;52789;1272;1016912;-54
2022/05/21 08:36:09;;;;;;;;;;;;;;;18.11;49.23;100195.70;52748;1274;1016686;-53
2022/05/21 08:38:41;;;;;;;;;;;;;;;18.18;49.07;100188.56;53300;1272;1016231;-53
2022/05/21 08:41:13;;;;;;;;;;;;;;;18.21;49.57;100196.63;52827;1272;1016232;-54
2022/05/21 08:43:50;;;;;;;;;;;;;;;18.21;48.94;100204.75;52754;1274;1016416;-50
2022/05/21 08:46:25;;;;;;;;;;;;;;;18.16;49.24;100205.08;52719;1271;1016286;-54
2022/05/21 08:48:57;;;;;;;;;;;;;;;18.16;49.31;100196.23;52634;1274;1016157;-55
2022/05/21 08:51:35;;;;;;;;;;;;;;;18.16;49.57;100196.28;54544;1272;1015906;-53
2022/05/21 08:54:06;;;;;;;;;;;;;;;18.31;49.68;100201.96;54566;1271;1015945;-55
2022/05/21 08:56:37;;;;;;;;;;;;;;;18.41;48.47;100199.46;54516;1271;1014659;-52
2022/05/21 10:42:04;;;;;;;;;;;;;;;18.77;43.34;100269.73;52829;1267;1016524;-53
2022/05/21 10:44:41;;;;;;;;;;;;;;;18.62;43.38;100278.47;52826;1268;1016813;-55
2022/05/21 10:47:19;;;;;;;;;;;;;;;18.58;43.74;100267.61;52816;1268;1016689;-54
2022/05/21 10:50:05;;;;;;;;;;;;;;;18.60;43.97;100265.65;53117;1267;1077102;-53
2022/05/21 10:52:42;;;;;;;;;;;;;;;18.62;43.65;100274.20;52980;1267;1015862;-52
2022/05/21 10:55:18;;;;;;;;;;;;;;;18.68;43.76;100264.45;52967;1267;1016574;-54
2022/05/21 10:58:00;;;;;;;;;;;;;;;18.80;44.08;100271.52;52997;1268;1016256;-54
2022/05/21 11:00:34;;;;;;;;;;;;;;;18.97;43.90;100274.23;52894;1267;1016489;-54
2022/05/21 11:03:15;;;;;;;;;;;;;;;19.01;43.36;100264.61;53459;1258;1016635;-65
2022/05/21 11:05:57;;;;;;;;;;;;;;;19.06;43.89;100266.48;52861;1268;1016751;-64
2022/05/21 11:08:30;;;;;;;;;;;;;;;19.20;43.35;100269.13;53965;1268;1016631;-64
2022/05/21 11:11:04;;;;;;;;;;;;;;;19.31;43.31;100271.95;53168;1268;1016114;-65
2022/05/21 11:13:37;;;;;;;;;;;;;;;19.38;43.11;100274.48;53691;1268;1018339;-65
2022/05/21 11:16:12;;;;;;;;;;;;;;;19.43;43.07;100276.02;52825;1268;1016107;-65
2022/05/21 11:18:44;;;;;;;;;;;;;;;19.42;42.49;100278.76;52810;1268;1016359;-64
2022/05/21 11:21:17;;;;;;;;;;;;;;;19.35;41.83;100283.23;52886;1268;1016259;-65
2022/05/21 11:23:54;;;;;;;;;;;;;;;19.24;42.31;100285.04;52909;1268;1016515;-65
2022/05/21 11:26:29;;;;;;;;;;;;;;;19.23;42.75;100285.30;52750;1268;1016871;-65
2022/05/21 11:29:02;;;;;;;;;;;;;;;19.31;42.97;100282.09;52844;1267;1016610;-65
2022/05/21 11:37:23;;;;;;;;;;;;;;;19.35;41.99;100286.94;52807;1268;1016635;-65
2022/05/21 11:39:54;;;;;;;;;;;;;;;19.34;42.29;100287.80;52845;1268;1015720;-64
2022/05/21 11:42:25;;;;;;;;;;;;;;;19.31;42.22;100288.05;52867;1268;1016522;-65
2022/05/21 11:44:59;;;;;;;;;;;;;;;19.32;42.29;100292.48;53039;1268;1015816;-65
2022/05/21 11:47:49;;;;;;;;;;;;;;;19.31;42.27;100283.23;53004;1268;1016090;-65
2022/05/21 11:50:21;;;;;;;;;;;;;;;19.32;42.55;100283.16;52889;1268;1016492;-64
2022/05/21 11:53:00;;;;;;;;;;;;;;;19.39;42.07;100286.36;52759;1268;1016611;-65
2022/05/21 11:55:32;;;;;;;;;;;;;;;19.40;41.43;100281.20;52884;1268;1016378;-66
2022/05/21 11:58:02;;;;;;;;;;;;;;;19.34;41.63;100289.63;52781;1268;1016651;-66
2022/05/21 12:00:55;;;;;;;;;;;;;;;19.35;41.98;100281.60;52814;1268;1016654;-65
2022/05/21 12:03:25;;;;;;;;;;;;;;;19.36;41.12;100291.94;52827;1267;1016631;-64
2022/05/21 12:06:13;;;;;;;;;;;;;;;19.24;41.16;100288.67;52797;1267;1017836;-65
2022/05/21 12:08:46;;;;;;;;;;;;;;;19.18;40.91;100290.68;52828;1268;1016308;-66
2022/05/21 12:11:35;;;;;;;;;;;;;;;19.16;41.52;100283.73;52865;1267;1017980;-66
2022/05/21 12:14:06;;;;;;;;;;;;;;;19.22;41.78;100293.55;52880;1268;1016619;-65
2022/05/21 12:16:56;;;;;;;;;;;;;;;19.29;41.40;100289.67;52853;1267;1016574;-65
2022/05/21 12:19:43;;;;;;;;;;;;;;;19.32;41.42;100295.66;52742;1268;1016418;-65
2022/05/21 12:22:33;;;;;;;;;;;;;;;19.38;41.50;100293.29;52833;1268;1016052;-65
2022/05/21 12:25:03;;;;;;;;;;;;;;;19.47;41.49;100291.64;52861;1268;1017431;-66
2022/05/21 12:27:33;;;;;;;;;;;;;;;19.51;41.19;100287.20;52760;1267;1016076;-66
2022/05/21 12:30:14;;;;;;;;;;;;;;;19.50;40.77;100292.11;52849;1267;1016642;-66
2022/05/21 12:32:45;;;;;;;;;;;;;;;19.44;40.91;100292.58;52811;1267;1016666;-66
2022/05/21 12:35:32;;;;;;;;;;;;;;;19.40;41.04;100291.14;52843;1268;1016902;-65
2022/05/21 12:38:08;;;;;;;;;;;;;;;19.35;40.82;100296.98;52736;1267;1016306;-66
2022/05/21 12:40:43;;;;;;;;;;;;;;;19.28;40.92;100291.45;52832;1267;1016356;-66
2022/05/21 12:43:14;;;;;;;;;;;;;;;19.24;40.62;100294.09;52836;1268;1018865;-66
2022/05/21 12:45:47;;;;;;;;;;;;;;;19.15;40.72;100287.90;52947;1268;1015950;-66
2022/05/21 12:48:19;;;;;;;;;;;;;;;19.08;41.15;100290.02;52967;1265;1017587;-65
2022/05/21 12:50:52;;;;;;;;;;;;;;;19.04;41.34;100290.18;52773;1268;1016570;-66
2022/05/21 12:53:25;;;;;;;;;;;;;;;18.99;41.51;100286.48;52848;1267;1016631;-65
2022/05/21 12:56:04;;;;;;;;;;;;;;;18.95;41.89;100289.99;52994;1267;1015948;-65
2022/05/21 12:58:34;;;;;;;;;;;;;;;18.88;42.06;100290.24;52905;1267;1016230;-65
2022/05/21 13:01:05;;;;;;;;;;;;;;;18.83;42.09;100288.94;52908;1267;1016382;-65
2022/05/21 13:03:36;;;;;;;;;;;;;;;18.78;42.18;100290.50;52830;1267;1016283;-66
2022/05/21 13:06:07;;;;;;;;;;;;;;;18.76;42.54;100289.08;52865;1267;1016649;-65
2022/05/21 13:08:40;;;;;;;;;;;;;;;18.75;42.71;100289.60;52879;1267;1016725;-66
2022/05/21 13:11:16;;;;;;;;;;;;;;;18.74;42.59;100289.98;52874;1266;1016343;-66
2022/05/21 13:13:52;;;;;;;;;;;;;;;18.71;42.48;100295.63;52865;1267;1017333;-65
2022/05/21 13:16:23;;;;;;;;;;;;;;;18.69;42.35;100297.62;52825;1267;1016564;-65
2022/05/21 13:19:09;;;;;;;;;;;;;;;18.67;42.12;100297.01;52789;1265;1016805;-65
2022/05/21 13:21:42;;;;;;;;;;;;;;;18.70;42.09;100300.94;52843;1267;1017728;-65
2022/05/21 13:24:21;;;;;;;;;;;;;;;18.74;42.19;100293.38;52919;1267;1019980;-65
2022/05/21 13:27:04;;;;;;;;;;;;;;;18.80;42.15;100293.44;52816;1267;1015626;-65
2022/05/21 13:29:34;;;;;;;;;;;;;;;18.89;42.30;100291.46;52814;1267;1016367;-65
2022/05/21 13:32:17;;;;;;;;;;;;;;;18.95;42.27;100287.16;52946;1267;1017258;-66
2022/05/21 13:34:47;;;;;;;;;;;;;;;18.99;42.38;100287.63;52853;1267;1017016;-65
2022/05/21 13:37:17;;;;;;;;;;;;;;;19.07;42.79;100284.58;52817;1267;1016588;-65
2022/05/21 13:39:58;;;;;;;;;;;;;;;19.21;42.44;100282.61;52856;1267;1016763;-65
2022/05/21 13:42:28;;;;;;;;;;;;;;;19.32;42.30;100277.25;52878;1267;1016722;-65
2022/05/21 13:45:05;;;;;;;;;;;;;;;19.36;41.95;100284.92;52754;1268;1016204;-66
2022/05/21 13:47:38;;;;;;;;;;;;;;;19.32;41.85;100277.61;53265;1268;1016508;-65
2022/05/21 13:50:10;;;;;;;;;;;;;;;19.28;41.69;100280.59;52770;1268;1016459;-65
2022/05/21 13:52:41;;;;;;;;;;;;;;;19.23;41.76;100281.45;53148;1268;1016630;-65
2022/05/21 13:55:13;;;;;;;;;;;;;;;19.17;41.41;100283.91;52931;1268;1016585;-65
2022/05/21 13:57:43;;;;;;;;;;;;;;;19.11;41.55;100283.06;52954;1268;1016541;-66
2022/05/21 14:00:28;;;;;;;;;;;;;;;19.09;41.63;100280.13;52984;1268;1016476;-65
2022/05/21 14:03:17;;;;;;;;;;;;;;;19.09;41.68;100272.39;52849;1268;1016795;-65
2022/05/21 14:05:53;;;;;;;;;;;;;;;19.11;41.71;100269.44;52905;1268;1015945;-66
2022/05/21 14:08:26;;;;;;;;;;;;;;;19.16;42.01;100273.69;52795;1268;1016027;-65
2022/05/21 14:11:00;;;;;;;;;;;;;;;19.20;41.57;100265.43;53445;1266;1015903;-65
2022/05/21 14:13:36;;;;;;;;;;;;;;;19.22;41.79;100266.79;52794;1268;1016601;-65
2022/05/21 14:16:08;;;;;;;;;;;;;;;19.32;41.94;100262.63;52789;1268;1016471;-65
2022/05/21 14:18:41;;;;;;;;;;;;;;;19.44;41.65;100263.73;53297;1268;1017454;-65
2022/05/21 14:21:21;;;;;;;;;;;;;;;19.48;41.41;100260.55;52817;1268;1016642;-65
2022/05/21 14:23:51;;;;;;;;;;;;;;;19.53;41.29;100255.45;52714;1268;1017152;-64
2022/05/21 14:26:31;;;;;;;;;;;;;;;19.56;41.45;100259.41;52795;1268;1019103;-65
2022/05/21 14:29:21;;;;;;;;;;;;;;;19.58;41.53;100252.48;52598;1268;1016219;-65
2022/05/21 14:31:50;;;;;;;;;;;;;;;19.57;41.11;100246.52;54569;1268;1015817;-64
2022/05/21 14:34:24;;;;;;;;;;;;;;;19.63;41.21;100241.58;53562;1270;1017144;-64
2022/05/21 14:36:54;;;;;;;;;;;;;;;19.67;41.10;100231.42;54544;1268;1015627;-65
2022/05/21 14:39:24;;;;;;;;;;;;;;;19.71;41.12;100235.73;54556;1268;1015981;-65
2022/05/21 14:41:58;;;;;;;;;;;;;;;19.75;41.35;100227.84;54581;1268;1016003;-65
2022/05/21 14:44:37;;;;;;;;;;;;;;;19.87;41.34;100231.77;52346;1268;5503901;-65
2022/05/21 14:52:49;;;;;;;;;;;;;;;19.93;39.81;100241.02;54584;1267;1015714;-65
2022/05/21 14:52:51;;;;;;;;;;;;;;;19.81;39.95;100231.56;54556;1268;1015565;-64
2022/05/21 14:55:22;;;;;;;;;;;;;;;19.75;40.32;100231.54;54561;1268;1015791;-64
2022/05/21 14:57:53;;;;;;;;;;;;;;;19.73;40.38;100233.73;54584;1268;1016525;-66
2022/05/21 15:00:23;;;;;;;;;;;;;;;19.68;40.28;100232.80;54528;1267;1016340;-65